sensor_id;sensor_type;location;lat;lon;timestamp;P1;durP1;ratioP1;P2;durP2;ratioP2
52798;SDS011;38667;42.872;74.622;2022-12-20T00:02:00;176.60;;;62.03;;
52798;SDS011;38667;42.872;74.622;2022-12-20T00:04:26;155.33;;;58.77;;
52798;SDS011;38667;42.872;74.622;2022-12-20T00:06:52;177.20;;;67.13;;
52798;SDS011;38667;42.872;74.622;2022-12-20T00:09:21;166.90;;;63.30;;
52798;SDS011;38667;42.872;74.622;2022-12-20T00:11:47;181.87;;;62.23;;
52798;SDS011;38667;42.872;74.622;2022-12-20T00:14:14;199.10;;;69.17;;
52798;SDS011;38667;42.872;74.622;2022-12-20T00:16:40;211.17;;;68.63;;
52798;SDS011;38667;42.872;74.622;2022-12-20T00:19:07;225.43;;;73.33;;
52798;SDS011;38667;42.872;74.622;2022-12-20T00:21:35;641.93;;;156.87;;
52798;SDS011;38667;42.872;74.622;2022-12-20T00:24:01;416.27;;;119.27;;
52798;SDS011;38667;42.872;74.622;2022-12-20T00:26:30;164.67;;;63.53;;
52798;SDS011;38667;42.872;74.622;2022-12-20T00:28:58;390.03;;;101.13;;
52798;SDS011;38667;42.872;74.622;2022-12-20T00:31:25;169.87;;;63.20;;
52798;SDS011;38667;42.872;74.622;2022-12-20T00:33:53;181.37;;;66.27;;
52798;SDS011;38667;42.872;74.622;2022-12-20T00:36:21;200.23;;;67.97;;
52798;SDS011;38667;42.872;74.622;2022-12-20T00:38:48;255.80;;;92.50;;
52798;SDS011;38667;42.872;74.622;2022-12-20T00:41:16;228.53;;;83.53;;
52798;SDS011;38667;42.872;74.622;2022-12-20T00:43:48;234.30;;;85.23;;
52798;SDS011;38667;42.872;74.622;2022-12-20T00:46:15;226.57;;;84.57;;
52798;SDS011;38667;42.872;74.622;2022-12-20T00:48:43;236.93;;;88.40;;
52798;SDS011;38667;42.872;74.622;2022-12-20T00:51:10;227.97;;;84.57;;
52798;SDS011;38667;42.872;74.622;2022-12-20T00:53:38;221.80;;;87.77;;
52798;SDS011;38667;42.872;74.622;2022-12-20T00:56:05;218.50;;;87.60;;
52798;SDS011;38667;42.872;74.622;2022-12-20T00:58:32;213.43;;;84.00;;
52798;SDS011;38667;42.872;74.622;2022-12-20T01:01:00;214.40;;;83.43;;
52798;SDS011;38667;42.872;74.622;2022-12-20T01:03:27;225.80;;;87.70;;
52798;SDS011;38667;42.872;74.622;2022-12-20T01:05:54;233.53;;;92.73;;
52798;SDS011;38667;42.872;74.622;2022-12-20T01:08:21;372.00;;;117.17;;
52798;SDS011;38667;42.872;74.622;2022-12-20T01:10:56;549.67;;;150.57;;
52798;SDS011;38667;42.872;74.622;2022-12-20T01:13:23;529.77;;;150.47;;
52798;SDS011;38667;42.872;74.622;2022-12-20T01:15:50;352.67;;;110.30;;
52798;SDS011;38667;42.872;74.622;2022-12-20T01:18:18;290.27;;;113.60;;
52798;SDS011;38667;42.872;74.622;2022-12-20T01:20:44;274.77;;;109.00;;
52798;SDS011;38667;42.872;74.622;2022-12-20T01:23:11;254.67;;;101.23;;
52798;SDS011;38667;42.872;74.622;2022-12-20T01:25:37;214.30;;;84.83;;
52798;SDS011;38667;42.872;74.622;2022-12-20T01:28:04;220.13;;;88.47;;
52798;SDS011;38667;42.872;74.622;2022-12-20T01:30:30;227.00;;;87.70;;
52798;SDS011;38667;42.872;74.622;2022-12-20T01:32:56;220.07;;;89.07;;
52798;SDS011;38667;42.872;74.622;2022-12-20T01:35:24;233.50;;;88.53;;
52798;SDS011;38667;42.872;74.622;2022-12-20T01:37:50;219.30;;;89.43;;
52798;SDS011;38667;42.872;74.622;2022-12-20T01:40:17;244.27;;;94.83;;
52798;SDS011;38667;42.872;74.622;2022-12-20T01:42:43;273.27;;;104.53;;
52798;SDS011;38667;42.872;74.622;2022-12-20T01:45:13;265.90;;;102.20;;
52798;SDS011;38667;42.872;74.622;2022-12-20T01:47:49;249.87;;;98.47;;
52798;SDS011;38667;42.872;74.622;2022-12-20T01:50:16;253.33;;;102.77;;
52798;SDS011;38667;42.872;74.622;2022-12-20T01:52:43;236.67;;;100.33;;
52798;SDS011;38667;42.872;74.622;2022-12-20T01:55:13;265.40;;;104.97;;
52798;SDS011;38667;42.872;74.622;2022-12-20T01:57:47;266.23;;;104.60;;
52798;SDS011;38667;42.872;74.622;2022-12-20T02:00:16;266.20;;;103.53;;
52798;SDS011;38667;42.872;74.622;2022-12-20T02:02:44;255.90;;;100.33;;
52798;SDS011;38667;42.872;74.622;2022-12-20T02:05:13;264.43;;;104.10;;
52798;SDS011;38667;42.872;74.622;2022-12-20T02:07:40;252.60;;;99.70;;
52798;SDS011;38667;42.872;74.622;2022-12-20T02:10:10;240.53;;;95.77;;
52798;SDS011;38667;42.872;74.622;2022-12-20T02:12:38;243.50;;;93.87;;
52798;SDS011;38667;42.872;74.622;2022-12-20T02:15:14;243.50;;;94.53;;
52798;SDS011;38667;42.872;74.622;2022-12-20T02:17:52;235.20;;;94.67;;
52798;SDS011;38667;42.872;74.622;2022-12-20T02:30:04;145.50;;;60.33;;
52798;SDS011;38667;42.872;74.622;2022-12-20T02:32:33;121.53;;;53.03;;
52798;SDS011;38667;42.872;74.622;2022-12-20T02:35:03;109.30;;;46.27;;
52798;SDS011;38667;42.872;74.622;2022-12-20T02:37:31;97.63;;;44.50;;
52798;SDS011;38667;42.872;74.622;2022-12-20T02:39:57;96.07;;;43.40;;
52798;SDS011;38667;42.872;74.622;2022-12-20T02:42:24;88.30;;;36.47;;
52798;SDS011;38667;42.872;74.622;2022-12-20T02:44:53;81.60;;;32.73;;
52798;SDS011;38667;42.872;74.622;2022-12-20T02:47:26;70.53;;;31.70;;
52798;SDS011;38667;42.872;74.622;2022-12-20T02:49:57;66.53;;;29.97;;
52798;SDS011;38667;42.872;74.622;2022-12-20T02:52:25;64.97;;;28.80;;
52798;SDS011;38667;42.872;74.622;2022-12-20T02:54:54;58.73;;;27.00;;
52798;SDS011;38667;42.872;74.622;2022-12-20T02:57:23;69.07;;;28.03;;
52798;SDS011;38667;42.872;74.622;2022-12-20T02:59:54;61.43;;;27.00;;
52798;SDS011;38667;42.872;74.622;2022-12-20T03:02:26;57.43;;;24.93;;
52798;SDS011;38667;42.872;74.622;2022-12-20T03:04:53;62.10;;;27.23;;
52798;SDS011;38667;42.872;74.622;2022-12-20T03:07:21;56.30;;;26.17;;
52798;SDS011;38667;42.872;74.622;2022-12-20T03:09:47;52.03;;;24.97;;
52798;SDS011;38667;42.872;74.622;2022-12-20T03:12:16;60.20;;;27.83;;
52798;SDS011;38667;42.872;74.622;2022-12-20T03:14:43;50.03;;;24.20;;
52798;SDS011;38667;42.872;74.622;2022-12-20T03:17:09;58.13;;;25.37;;
52798;SDS011;38667;42.872;74.622;2022-12-20T03:19:37;53.40;;;24.53;;
52798;SDS011;38667;42.872;74.622;2022-12-20T03:22:04;56.10;;;25.17;;
52798;SDS011;38667;42.872;74.622;2022-12-20T03:24:30;60.67;;;26.80;;
52798;SDS011;38667;42.872;74.622;2022-12-20T03:26:56;67.03;;;27.33;;
52798;SDS011;38667;42.872;74.622;2022-12-20T03:29:23;57.83;;;26.77;;
52798;SDS011;38667;42.872;74.622;2022-12-20T03:31:49;54.97;;;26.33;;
52798;SDS011;38667;42.872;74.622;2022-12-20T03:34:15;46.70;;;23.37;;
52798;SDS011;38667;42.872;74.622;2022-12-20T03:36:45;55.23;;;25.53;;
52798;SDS011;38667;42.872;74.622;2022-12-20T03:39:11;54.83;;;25.40;;
52798;SDS011;38667;42.872;74.622;2022-12-20T03:41:38;51.30;;;23.50;;
52798;SDS011;38667;42.872;74.622;2022-12-20T03:44:04;56.47;;;23.43;;
52798;SDS011;38667;42.872;74.622;2022-12-20T03:46:30;49.80;;;23.90;;
52798;SDS011;38667;42.872;74.622;2022-12-20T03:48:57;63.97;;;26.60;;
52798;SDS011;38667;42.872;74.622;2022-12-20T03:51:23;62.73;;;29.80;;
52798;SDS011;38667;42.872;74.622;2022-12-20T03:53:51;65.37;;;28.30;;
52798;SDS011;38667;42.872;74.622;2022-12-20T03:56:17;57.40;;;24.30;;
52798;SDS011;38667;42.872;74.622;2022-12-20T03:58:44;58.63;;;27.10;;
52798;SDS011;38667;42.872;74.622;2022-12-20T04:01:17;68.33;;;29.23;;
52798;SDS011;38667;42.872;74.622;2022-12-20T04:03:44;59.80;;;25.20;;
52798;SDS011;38667;42.872;74.622;2022-12-20T04:06:11;51.77;;;20.10;;
52798;SDS011;38667;42.872;74.622;2022-12-20T04:08:37;46.13;;;18.50;;
52798;SDS011;38667;42.872;74.622;2022-12-20T04:11:05;47.70;;;21.40;;
52798;SDS011;38667;42.872;74.622;2022-12-20T04:13:31;46.10;;;20.37;;
52798;SDS011;38667;42.872;74.622;2022-12-20T04:15:57;49.00;;;21.80;;
52798;SDS011;38667;42.872;74.622;2022-12-20T04:18:24;48.50;;;22.07;;
52798;SDS011;38667;42.872;74.622;2022-12-20T04:20:51;57.70;;;20.83;;
52798;SDS011;38667;42.872;74.622;2022-12-20T04:23:18;27.87;;;13.53;;
52798;SDS011;38667;42.872;74.622;2022-12-20T04:25:44;32.03;;;15.20;;
52798;SDS011;38667;42.872;74.622;2022-12-20T04:28:12;38.93;;;17.47;;
52798;SDS011;38667;42.872;74.622;2022-12-20T04:30:38;41.17;;;18.03;;
52798;SDS011;38667;42.872;74.622;2022-12-20T04:33:05;44.13;;;21.00;;
52798;SDS011;38667;42.872;74.622;2022-12-20T04:35:31;35.60;;;17.77;;
52798;SDS011;38667;42.872;74.622;2022-12-20T04:37:57;38.13;;;18.67;;
52798;SDS011;38667;42.872;74.622;2022-12-20T04:40:24;39.87;;;17.00;;
52798;SDS011;38667;42.872;74.622;2022-12-20T04:42:50;40.97;;;16.43;;
52798;SDS011;38667;42.872;74.622;2022-12-20T04:45:18;43.73;;;16.93;;
52798;SDS011;38667;42.872;74.622;2022-12-20T04:47:44;41.70;;;18.73;;
52798;SDS011;38667;42.872;74.622;2022-12-20T04:50:10;42.50;;;17.67;;
52798;SDS011;38667;42.872;74.622;2022-12-20T04:52:37;38.23;;;16.73;;
52798;SDS011;38667;42.872;74.622;2022-12-20T04:55:03;48.90;;;17.67;;
52798;SDS011;38667;42.872;74.622;2022-12-20T04:57:30;52.37;;;16.93;;
52798;SDS011;38667;42.872;74.622;2022-12-20T04:59:56;46.13;;;15.57;;
52798;SDS011;38667;42.872;74.622;2022-12-20T05:02:25;45.00;;;20.37;;
52798;SDS011;38667;42.872;74.622;2022-12-20T05:04:51;55.87;;;22.73;;
52798;SDS011;38667;42.872;74.622;2022-12-20T05:07:18;45.97;;;19.30;;
52798;SDS011;38667;42.872;74.622;2022-12-20T05:09:44;65.17;;;26.40;;
52798;SDS011;38667;42.872;74.622;2022-12-20T05:12:10;65.17;;;24.73;;
52798;SDS011;38667;42.872;74.622;2022-12-20T05:14:37;48.00;;;20.67;;
52798;SDS011;38667;42.872;74.622;2022-12-20T05:17:03;54.00;;;19.77;;
52798;SDS011;38667;42.872;74.622;2022-12-20T05:19:31;46.13;;;17.23;;
52798;SDS011;38667;42.872;74.622;2022-12-20T05:21:57;15.70;;;5.90;;
52798;SDS011;38667;42.872;74.622;2022-12-20T05:24:24;28.63;;;9.90;;
52798;SDS011;38667;42.872;74.622;2022-12-20T05:26:50;39.23;;;12.70;;
52798;SDS011;38667;42.872;74.622;2022-12-20T05:29:16;29.30;;;11.00;;
52798;SDS011;38667;42.872;74.622;2022-12-20T05:31:43;22.47;;;9.27;;
52798;SDS011;38667;42.872;74.622;2022-12-20T05:34:09;27.33;;;7.17;;
52798;SDS011;38667;42.872;74.622;2022-12-20T05:36:37;24.43;;;7.47;;
52798;SDS011;38667;42.872;74.622;2022-12-20T05:39:03;26.67;;;8.40;;
52798;SDS011;38667;42.872;74.622;2022-12-20T05:41:29;22.70;;;7.27;;
52798;SDS011;38667;42.872;74.622;2022-12-20T05:43:56;16.47;;;6.40;;
52798;SDS011;38667;42.872;74.622;2022-12-20T05:46:22;17.30;;;7.25;;
52798;SDS011;38667;42.872;74.622;2022-12-20T05:48:49;17.73;;;7.40;;
52798;SDS011;38667;42.872;74.622;2022-12-20T05:51:15;25.90;;;8.07;;
52798;SDS011;38667;42.872;74.622;2022-12-20T05:53:43;32.37;;;8.43;;
52798;SDS011;38667;42.872;74.622;2022-12-20T05:56:09;40.20;;;9.80;;
52798;SDS011;38667;42.872;74.622;2022-12-20T05:58:35;44.80;;;9.27;;
52798;SDS011;38667;42.872;74.622;2022-12-20T06:01:02;21.33;;;8.40;;
52798;SDS011;38667;42.872;74.622;2022-12-20T06:03:30;30.87;;;7.10;;
52798;SDS011;38667;42.872;74.622;2022-12-20T06:05:57;14.87;;;5.10;;
52798;SDS011;38667;42.872;74.622;2022-12-20T06:08:23;28.43;;;6.50;;
52798;SDS011;38667;42.872;74.622;2022-12-20T06:10:51;18.77;;;6.03;;
52798;SDS011;38667;42.872;74.622;2022-12-20T06:13:17;9.23;;;4.70;;
52798;SDS011;38667;42.872;74.622;2022-12-20T06:15:44;16.00;;;4.13;;
52798;SDS011;38667;42.872;74.622;2022-12-20T06:18:10;12.90;;;4.67;;
52798;SDS011;38667;42.872;74.622;2022-12-20T06:20:37;8.57;;;4.97;;
52798;SDS011;38667;42.872;74.622;2022-12-20T06:23:03;25.75;;;5.75;;
52798;SDS011;38667;42.872;74.622;2022-12-20T06:25:30;13.13;;;5.27;;
52798;SDS011;38667;42.872;74.622;2022-12-20T06:27:58;21.57;;;6.63;;
52798;SDS011;38667;42.872;74.622;2022-12-20T06:30:24;26.58;;;6.47;;
52798;SDS011;38667;42.872;74.622;2022-12-20T06:32:50;21.38;;;7.00;;
52798;SDS011;38667;42.872;74.622;2022-12-20T06:35:18;10.38;;;5.32;;
52798;SDS011;38667;42.872;74.622;2022-12-20T06:37:44;11.73;;;5.13;;
52798;SDS011;38667;42.872;74.622;2022-12-20T06:40:11;31.85;;;7.28;;
52798;SDS011;38667;42.872;74.622;2022-12-20T06:42:38;30.75;;;8.40;;
52798;SDS011;38667;42.872;74.622;2022-12-20T06:45:07;23.10;;;7.65;;
52798;SDS011;38667;42.872;74.622;2022-12-20T06:47:34;21.50;;;6.28;;
52798;SDS011;38667;42.872;74.622;2022-12-20T06:50:00;20.60;;;6.60;;
52798;SDS011;38667;42.872;74.622;2022-12-20T06:52:27;18.60;;;7.10;;
52798;SDS011;38667;42.872;74.622;2022-12-20T06:54:53;15.88;;;6.43;;
52798;SDS011;38667;42.872;74.622;2022-12-20T06:57:19;12.95;;;6.18;;
52798;SDS011;38667;42.872;74.622;2022-12-20T06:59:46;13.20;;;6.15;;
52798;SDS011;38667;42.872;74.622;2022-12-20T07:02:14;10.48;;;5.80;;
52798;SDS011;38667;42.872;74.622;2022-12-20T07:04:40;19.50;;;5.90;;
52798;SDS011;38667;42.872;74.622;2022-12-20T07:07:07;17.00;;;5.97;;
52798;SDS011;38667;42.872;74.622;2022-12-20T07:09:33;27.98;;;7.00;;
52798;SDS011;38667;42.872;74.622;2022-12-20T07:11:59;27.98;;;7.93;;
52798;SDS011;38667;42.872;74.622;2022-12-20T07:14:26;20.83;;;7.10;;
52798;SDS011;38667;42.872;74.622;2022-12-20T07:16:52;14.10;;;7.03;;
52798;SDS011;38667;42.872;74.622;2022-12-20T07:19:20;16.73;;;7.53;;
52798;SDS011;38667;42.872;74.622;2022-12-20T07:21:46;16.98;;;8.20;;
52798;SDS011;38667;42.872;74.622;2022-12-20T07:24:13;17.35;;;7.88;;
52798;SDS011;38667;42.872;74.622;2022-12-20T07:26:39;19.85;;;9.07;;
52798;SDS011;38667;42.872;74.622;2022-12-20T07:29:05;22.52;;;8.45;;
52798;SDS011;38667;42.872;74.622;2022-12-20T07:31:32;45.63;;;17.73;;
52798;SDS011;38667;42.872;74.622;2022-12-20T07:33:58;41.22;;;15.38;;
52798;SDS011;38667;42.872;74.622;2022-12-20T07:36:26;61.50;;;28.10;;
52798;SDS011;38667;42.872;74.622;2022-12-20T07:38:52;66.90;;;30.42;;
52798;SDS011;38667;42.872;74.622;2022-12-20T07:41:18;65.03;;;31.75;;
52798;SDS011;38667;42.872;74.622;2022-12-20T07:43:45;63.63;;;29.60;;
52798;SDS011;38667;42.872;74.622;2022-12-20T07:46:12;69.15;;;30.73;;
52798;SDS011;38667;42.872;74.622;2022-12-20T07:48:39;62.55;;;29.70;;
52798;SDS011;38667;42.872;74.622;2022-12-20T07:51:06;55.30;;;25.02;;
52798;SDS011;38667;42.872;74.622;2022-12-20T07:53:36;62.38;;;26.95;;
52798;SDS011;38667;42.872;74.622;2022-12-20T07:56:05;61.15;;;27.00;;
52798;SDS011;38667;42.872;74.622;2022-12-20T07:58:34;65.80;;;29.65;;
52798;SDS011;38667;42.872;74.622;2022-12-20T08:01:03;63.10;;;28.80;;
52798;SDS011;38667;42.872;74.622;2022-12-20T08:03:31;70.45;;;31.08;;
52798;SDS011;38667;42.872;74.622;2022-12-20T08:06:01;85.13;;;36.72;;
52798;SDS011;38667;42.872;74.622;2022-12-20T08:08:39;80.90;;;35.50;;
52798;SDS011;38667;42.872;74.622;2022-12-20T08:11:10;67.50;;;31.48;;
52798;SDS011;38667;42.872;74.622;2022-12-20T08:13:37;79.60;;;32.88;;
52798;SDS011;38667;42.872;74.622;2022-12-20T08:16:04;66.63;;;30.38;;
52798;SDS011;38667;42.872;74.622;2022-12-20T08:18:31;61.38;;;31.33;;
52798;SDS011;38667;42.872;74.622;2022-12-20T08:20:57;79.95;;;33.28;;
52798;SDS011;38667;42.872;74.622;2022-12-20T08:23:24;69.70;;;31.45;;
52798;SDS011;38667;42.872;74.622;2022-12-20T08:25:51;87.00;;;40.65;;
52798;SDS011;38667;42.872;74.622;2022-12-20T08:28:18;72.40;;;34.42;;
52798;SDS011;38667;42.872;74.622;2022-12-20T08:30:44;68.90;;;32.50;;
52798;SDS011;38667;42.872;74.622;2022-12-20T08:33:10;71.72;;;30.40;;
52798;SDS011;38667;42.872;74.622;2022-12-20T08:35:37;81.90;;;35.15;;
52798;SDS011;38667;42.872;74.622;2022-12-20T08:38:03;82.72;;;38.40;;
52798;SDS011;38667;42.872;74.622;2022-12-20T08:40:30;80.93;;;37.00;;
52798;SDS011;38667;42.872;74.622;2022-12-20T08:42:58;60.40;;;29.90;;
52798;SDS011;38667;42.872;74.622;2022-12-20T08:45:25;67.22;;;28.25;;
52798;SDS011;38667;42.872;74.622;2022-12-20T08:47:52;59.65;;;27.23;;
52798;SDS011;38667;42.872;74.622;2022-12-20T08:50:18;60.53;;;26.83;;
52798;SDS011;38667;42.872;74.622;2022-12-20T08:52:45;61.17;;;28.05;;
52798;SDS011;38667;42.872;74.622;2022-12-20T08:55:11;57.22;;;27.98;;
52798;SDS011;38667;42.872;74.622;2022-12-20T08:57:37;51.60;;;26.60;;
52798;SDS011;38667;42.872;74.622;2022-12-20T09:00:06;66.43;;;31.20;;
52798;SDS011;38667;42.872;74.622;2022-12-20T09:02:33;68.65;;;30.80;;
52798;SDS011;38667;42.872;74.622;2022-12-20T09:05:00;77.88;;;33.40;;
52798;SDS011;38667;42.872;74.622;2022-12-20T09:07:26;75.32;;;33.47;;
52798;SDS011;38667;42.872;74.622;2022-12-20T09:09:53;78.82;;;32.63;;
52798;SDS011;38667;42.872;74.622;2022-12-20T09:12:19;69.72;;;34.70;;
52798;SDS011;38667;42.872;74.622;2022-12-20T09:14:45;84.65;;;34.92;;
52798;SDS011;38667;42.872;74.622;2022-12-20T09:17:14;67.55;;;34.40;;
52798;SDS011;38667;42.872;74.622;2022-12-20T09:19:40;85.95;;;35.22;;
52798;SDS011;38667;42.872;74.622;2022-12-20T09:22:07;76.97;;;33.95;;
52798;SDS011;38667;42.872;74.622;2022-12-20T09:24:33;70.50;;;34.00;;
52798;SDS011;38667;42.872;74.622;2022-12-20T09:27:01;72.50;;;32.65;;
52798;SDS011;38667;42.872;74.622;2022-12-20T09:29:27;68.10;;;31.48;;
52798;SDS011;38667;42.872;74.622;2022-12-20T09:31:54;75.07;;;32.50;;
52798;SDS011;38667;42.872;74.622;2022-12-20T09:34:22;66.38;;;29.67;;
52798;SDS011;38667;42.872;74.622;2022-12-20T09:36:48;67.20;;;29.92;;
52798;SDS011;38667;42.872;74.622;2022-12-20T09:39:14;69.00;;;29.42;;
52798;SDS011;38667;42.872;74.622;2022-12-20T09:41:41;56.08;;;27.70;;
52798;SDS011;38667;42.872;74.622;2022-12-20T09:44:10;76.07;;;32.00;;
52798;SDS011;38667;42.872;74.622;2022-12-20T09:46:40;72.22;;;33.25;;
52798;SDS011;38667;42.872;74.622;2022-12-20T09:49:09;71.15;;;32.80;;
52798;SDS011;38667;42.872;74.622;2022-12-20T09:51:45;76.93;;;31.23;;
52798;SDS011;38667;42.872;74.622;2022-12-20T09:54:29;77.20;;;31.60;;
52798;SDS011;38667;42.872;74.622;2022-12-20T09:57:05;66.80;;;31.30;;
52798;SDS011;38667;42.872;74.622;2022-12-20T09:59:42;75.07;;;32.20;;
52798;SDS011;38667;42.872;74.622;2022-12-20T10:02:09;94.65;;;35.00;;
52798;SDS011;38667;42.872;74.622;2022-12-20T10:04:37;72.97;;;31.92;;
52798;SDS011;38667;42.872;74.622;2022-12-20T10:07:09;86.35;;;33.65;;
52798;SDS011;38667;42.872;74.622;2022-12-20T10:09:48;95.32;;;34.40;;
52798;SDS011;38667;42.872;74.622;2022-12-20T10:12:29;89.18;;;35.70;;
52798;SDS011;38667;42.872;74.622;2022-12-20T10:15:11;96.57;;;35.97;;
52798;SDS011;38667;42.872;74.622;2022-12-20T10:17:45;117.97;;;39.50;;
52798;SDS011;38667;42.872;74.622;2022-12-20T10:20:40;128.75;;;39.08;;
52798;SDS011;38667;42.872;74.622;2022-12-20T10:23:16;143.30;;;43.30;;
52798;SDS011;38667;42.872;74.622;2022-12-20T10:25:47;119.78;;;39.13;;
52798;SDS011;38667;42.872;74.622;2022-12-20T10:28:14;143.20;;;45.47;;
52798;SDS011;38667;42.872;74.622;2022-12-20T10:30:41;126.55;;;44.53;;
52798;SDS011;38667;42.872;74.622;2022-12-20T10:33:11;101.25;;;37.78;;
52798;SDS011;38667;42.872;74.622;2022-12-20T10:35:42;102.50;;;38.25;;
52798;SDS011;38667;42.872;74.622;2022-12-20T10:38:09;94.57;;;38.10;;
52798;SDS011;38667;42.872;74.622;2022-12-20T10:40:38;101.55;;;38.70;;
52798;SDS011;38667;42.872;74.622;2022-12-20T10:43:14;129.60;;;49.70;;
52798;SDS011;38667;42.872;74.622;2022-12-20T10:45:43;126.28;;;46.35;;
52798;SDS011;38667;42.872;74.622;2022-12-20T10:48:25;132.35;;;50.00;;
52798;SDS011;38667;42.872;74.622;2022-12-20T10:50:56;129.73;;;49.40;;
52798;SDS011;38667;42.872;74.622;2022-12-20T10:53:24;164.38;;;60.78;;
52798;SDS011;38667;42.872;74.622;2022-12-20T10:56:15;147.50;;;55.25;;
52798;SDS011;38667;42.872;74.622;2022-12-20T11:01:48;156.63;;;60.35;;
52798;SDS011;38667;42.872;74.622;2022-12-20T11:04:21;185.00;;;66.75;;
52798;SDS011;38667;42.872;74.622;2022-12-20T11:06:51;193.18;;;67.40;;
52798;SDS011;38667;42.872;74.622;2022-12-20T11:09:21;229.25;;;71.03;;
52798;SDS011;38667;42.872;74.622;2022-12-20T11:14:39;241.20;;;70.18;;
52798;SDS011;38667;42.872;74.622;2022-12-20T11:17:15;200.18;;;80.65;;
52798;SDS011;38667;42.872;74.622;2022-12-20T11:22:47;212.55;;;72.05;;
52798;SDS011;38667;42.872;74.622;2022-12-20T11:25:28;184.93;;;69.53;;
52798;SDS011;38667;42.872;74.622;2022-12-20T11:28:10;190.48;;;67.40;;
52798;SDS011;38667;42.872;74.622;2022-12-20T11:30:48;192.18;;;76.18;;
52798;SDS011;38667;42.872;74.622;2022-12-20T11:36:16;270.92;;;109.05;;
52798;SDS011;38667;42.872;74.622;2022-12-20T11:38:49;258.33;;;107.40;;
52798;SDS011;38667;42.872;74.622;2022-12-20T11:41:23;232.88;;;95.97;;
52798;SDS011;38667;42.872;74.622;2022-12-20T11:44:01;235.10;;;97.22;;
52798;SDS011;38667;42.872;74.622;2022-12-20T11:46:40;255.10;;;102.07;;
52798;SDS011;38667;42.872;74.622;2022-12-20T11:52:15;177.95;;;74.25;;
52798;SDS011;38667;42.872;74.622;2022-12-20T11:54:55;221.60;;;85.65;;
52798;SDS011;38667;42.872;74.622;2022-12-20T11:57:29;267.10;;;91.90;;
52798;SDS011;38667;42.872;74.622;2022-12-20T12:00:03;250.05;;;90.15;;
52798;SDS011;38667;42.872;74.622;2022-12-20T12:02:32;240.80;;;81.72;;
52798;SDS011;38667;42.872;74.622;2022-12-20T12:05:03;211.07;;;79.10;;
52798;SDS011;38667;42.872;74.622;2022-12-20T12:07:32;262.00;;;90.83;;
52798;SDS011;38667;42.872;74.622;2022-12-20T12:10:00;255.30;;;90.83;;
52798;SDS011;38667;42.872;74.622;2022-12-20T12:12:31;248.13;;;86.93;;
52798;SDS011;38667;42.872;74.622;2022-12-20T12:15:05;232.73;;;84.97;;
52798;SDS011;38667;42.872;74.622;2022-12-20T12:17:47;251.10;;;92.83;;
52798;SDS011;38667;42.872;74.622;2022-12-20T12:20:21;265.10;;;94.30;;
52798;SDS011;38667;42.872;74.622;2022-12-20T12:22:52;284.57;;;98.37;;
52798;SDS011;38667;42.872;74.622;2022-12-20T12:25:25;282.90;;;95.20;;
52798;SDS011;38667;42.872;74.622;2022-12-20T12:27:52;247.47;;;84.73;;
52798;SDS011;38667;42.872;74.622;2022-12-20T12:30:20;230.63;;;80.33;;
52798;SDS011;38667;42.872;74.622;2022-12-20T12:32:47;221.73;;;76.30;;
52798;SDS011;38667;42.872;74.622;2022-12-20T12:35:23;234.43;;;73.17;;
52798;SDS011;38667;42.872;74.622;2022-12-20T12:41:21;220.10;;;75.70;;
52798;SDS011;38667;42.872;74.622;2022-12-20T12:44:07;186.03;;;68.60;;
52798;SDS011;38667;42.872;74.622;2022-12-20T12:46:59;183.87;;;59.43;;
52798;SDS011;38667;42.872;74.622;2022-12-20T12:49:29;172.03;;;57.93;;
52798;SDS011;38667;42.872;74.622;2022-12-20T12:51:58;167.83;;;60.00;;
52798;SDS011;38667;42.872;74.622;2022-12-20T12:54:28;162.33;;;69.30;;
52798;SDS011;38667;42.872;74.622;2022-12-20T12:57:00;156.03;;;61.87;;
52798;SDS011;38667;42.872;74.622;2022-12-20T13:05:29;151.77;;;52.97;;
52798;SDS011;38667;42.872;74.622;2022-12-20T13:07:57;167.93;;;55.23;;
52798;SDS011;38667;42.872;74.622;2022-12-20T13:13:26;160.87;;;53.23;;
52798;SDS011;38667;42.872;74.622;2022-12-20T13:18:57;125.90;;;45.47;;
52798;SDS011;38667;42.872;74.622;2022-12-20T13:21:37;114.10;;;42.40;;
52798;SDS011;38667;42.872;74.622;2022-12-20T13:27:30;120.50;;;44.93;;
52798;SDS011;38667;42.872;74.622;2022-12-20T13:30:00;108.23;;;40.17;;
52798;SDS011;38667;42.872;74.622;2022-12-20T13:33:15;125.13;;;43.03;;
52798;SDS011;38667;42.872;74.622;2022-12-20T13:41:50;118.60;;;46.80;;
52798;SDS011;38667;42.872;74.622;2022-12-20T13:44:33;134.57;;;49.63;;
52798;SDS011;38667;42.872;74.622;2022-12-20T13:47:02;257.43;;;106.37;;
52798;SDS011;38667;42.872;74.622;2022-12-20T13:49:37;190.83;;;74.77;;
52798;SDS011;38667;42.872;74.622;2022-12-20T13:54:54;184.50;;;66.43;;
52798;SDS011;38667;42.872;74.622;2022-12-20T13:57:26;183.40;;;64.30;;
52798;SDS011;38667;42.872;74.622;2022-12-20T13:59:56;147.27;;;54.60;;
52798;SDS011;38667;42.872;74.622;2022-12-20T14:02:26;123.77;;;49.43;;
52798;SDS011;38667;42.872;74.622;2022-12-20T14:04:58;137.00;;;50.67;;
52798;SDS011;38667;42.872;74.622;2022-12-20T14:07:26;141.43;;;58.50;;
52798;SDS011;38667;42.872;74.622;2022-12-20T14:09:57;148.50;;;63.53;;
52798;SDS011;38667;42.872;74.622;2022-12-20T14:12:25;78.67;;;30.63;;
52798;SDS011;38667;42.872;74.622;2022-12-20T14:14:53;121.97;;;49.30;;
52798;SDS011;38667;42.872;74.622;2022-12-20T14:17:23;134.63;;;53.03;;
52798;SDS011;38667;42.872;74.622;2022-12-20T14:20:04;125.20;;;50.77;;
52798;SDS011;38667;42.872;74.622;2022-12-20T14:22:40;167.27;;;62.60;;
52798;SDS011;38667;42.872;74.622;2022-12-20T14:25:17;223.37;;;91.97;;
52798;SDS011;38667;42.872;74.622;2022-12-20T14:27:51;243.40;;;101.87;;
52798;SDS011;38667;42.872;74.622;2022-12-20T14:30:24;241.07;;;98.07;;
52798;SDS011;38667;42.872;74.622;2022-12-20T14:32:53;220.93;;;93.90;;
52798;SDS011;38667;42.872;74.622;2022-12-20T14:35:20;205.20;;;78.03;;
52798;SDS011;38667;42.872;74.622;2022-12-20T14:37:53;165.10;;;61.80;;
52798;SDS011;38667;42.872;74.622;2022-12-20T14:40:21;154.20;;;59.43;;
52798;SDS011;38667;42.872;74.622;2022-12-20T14:42:48;136.50;;;57.57;;
52798;SDS011;38667;42.872;74.622;2022-12-20T14:45:16;155.47;;;60.67;;
52798;SDS011;38667;42.872;74.622;2022-12-20T14:47:48;146.27;;;58.23;;
52798;SDS011;38667;42.872;74.622;2022-12-20T14:50:19;158.37;;;59.93;;
52798;SDS011;38667;42.872;74.622;2022-12-20T14:52:49;165.73;;;62.10;;
52798;SDS011;38667;42.872;74.622;2022-12-20T14:55:18;170.93;;;58.77;;
52798;SDS011;38667;42.872;74.622;2022-12-20T14:57:46;185.47;;;62.70;;
52798;SDS011;38667;42.872;74.622;2022-12-20T15:00:14;157.77;;;60.30;;
52798;SDS011;38667;42.872;74.622;2022-12-20T15:02:48;161.33;;;61.63;;
52798;SDS011;38667;42.872;74.622;2022-12-20T15:05:35;184.73;;;64.27;;
52798;SDS011;38667;42.872;74.622;2022-12-20T15:08:10;138.90;;;56.10;;